Time;durP1;ratioP1;P1;durP2;ratioP2;P2;SDS_P1;SDS_P2;PMS_P1;PMS_P2;Temp;Humidity;BMP_temperature;BMP_pressure;BME280_temperature;BME280_humidity;BME280_pressure;Samples;Min_cycle;Max_cycle;Signal;HPM_P1;HPM_P2
2021/06/26 00:01:12;;;;;;;5.53;1.87;;;;;;;21.82;62.63;99310.66;1755739;81;21525;-71
2021/06/26 00:03:39;;;;;;;6.05;1.70;;;;;;;21.83;62.82;99305.35;1755848;82;21183;-74
2021/06/26 00:06:05;;;;;;;9.60;2.33;;;;;;;21.86;62.88;99303.83;1750086;81;21560;-71
2021/06/26 00:08:32;;;;;;;7.78;2.20;;;;;;;21.81;63.12;99306.30;1755873;82;21078;-72
2021/06/26 00:10:59;;;;;;;9.83;2.33;;;;;;;21.77;63.33;99313.72;1756020;82;21082;-72
2021/06/26 00:13:25;;;;;;;6.65;1.95;;;;;;;21.80;63.34;99319.12;1756060;82;20991;-71
2021/06/26 00:15:52;;;;;;;10.08;2.37;;;;;;;21.82;63.27;99325.91;1750398;82;21015;-74
2021/06/26 00:18:18;;;;;;;8.58;2.62;;;;;;;21.79;63.35;99333.55;1756137;81;21074;-73
2021/06/26 00:20:44;;;;;;;6.97;2.30;;;;;;;21.77;63.55;99336.45;1758755;81;21065;-73
2021/06/26 00:23:11;;;;;;;7.95;1.98;;;;;;;21.73;63.92;99339.13;1758930;81;21552;-73
2021/06/26 00:25:38;;;;;;;5.42;2.27;;;;;;;21.75;64.14;99340.95;1756314;81;21054;-73
2021/06/26 00:28:05;;;;;;;7.25;2.20;;;;;;;21.80;64.07;99334.35;1755909;82;21102;-72
2021/06/26 00:30:31;;;;;;;6.60;1.77;;;;;;;21.79;64.17;99332.16;1755748;82;21047;-73
2021/06/26 00:32:57;;;;;;;9.20;2.37;;;;;;;21.73;64.33;99341.90;1756086;82;21114;-73
2021/06/26 00:35:24;;;;;;;4.90;1.85;;;;;;;21.66;64.56;99347.83;1755928;81;21055;-73
2021/06/26 00:37:52;;;;;;;10.50;2.42;;;;;;;21.65;64.76;99351.17;1758833;81;21035;-73
2021/06/26 00:40:19;;;;;;;9.75;2.15;;;;;;;21.66;64.87;99353.36;1751052;81;21094;-73
2021/06/26 00:42:46;;;;;;;9.60;2.70;;;;;;;21.66;65.11;99345.05;1747590;82;21051;-73
2021/06/26 00:45:15;;;;;;;9.63;2.60;;;;;;;21.61;65.41;99336.41;1747387;82;21003;-72
2021/06/26 00:47:41;;;;;;;11.50;2.45;;;;;;;21.59;65.65;99331.02;1752202;82;21596;-73
2021/06/26 00:50:17;;;;;;;6.97;2.70;;;;;;;21.57;65.72;99329.19;1728818;82;21051;-74
2021/06/26 00:52:43;;;;;;;10.03;2.72;;;;;;;21.58;65.81;99332.16;1726595;82;21065;-74
2021/06/26 00:55:10;;;;;;;13.00;2.70;;;;;;;21.58;65.83;99324.66;1737675;82;21043;-74
2021/06/26 00:57:44;;;;;;;11.43;3.25;;;;;;;21.56;66.04;99322.84;1726885;82;21079;-73
2021/06/26 01:00:12;;;;;;;9.30;2.33;;;;;;;21.49;66.33;99312.95;1755725;82;21090;-74
2021/06/26 01:02:38;;;;;;;6.58;2.12;;;;;;;21.44;66.58;99308.23;1755814;82;21541;-73
2021/06/26 01:05:06;;;;;;;9.08;2.50;;;;;;;21.45;66.69;99318.16;1755006;81;21015;-74
2021/06/26 01:07:33;;;;;;;8.58;2.95;;;;;;;21.44;66.70;99309.62;1755919;82;21106;-73
2021/06/26 01:10:00;;;;;;;8.73;2.67;;;;;;;21.38;67.01;99320.16;1755759;82;21018;-74
2021/06/26 01:12:27;;;;;;;7.62;2.60;;;;;;;21.29;67.40;99323.06;1746227;82;21573;-73
2021/06/26 01:14:53;;;;;;;9.40;2.65;;;;;;;21.26;67.57;99320.20;1724305;83;21019;-74
2021/06/26 01:17:20;;;;;;;10.03;2.80;;;;;;;21.28;67.49;99327.02;1744761;82;21067;-73
2021/06/26 01:19:46;;;;;;;8.53;2.92;;;;;;;21.30;67.51;99326.07;1747595;82;21043;-74
2021/06/26 01:22:15;;;;;;;9.58;3.37;;;;;;;21.26;67.66;99325.16;1752384;81;21002;-73
2021/06/26 01:24:41;;;;;;;8.75;3.00;;;;;;;21.19;68.12;99322.19;1764090;81;21052;-73
2021/06/26 01:27:08;;;;;;;12.10;2.87;;;;;;;21.19;68.46;99326.91;1748715;82;21049;-74
2021/06/26 01:29:34;;;;;;;6.58;2.58;;;;;;;21.14;68.49;99316.11;1747372;82;21033;-73
2021/06/26 01:32:01;;;;;;;10.08;2.83;;;;;;;21.05;68.71;99320.36;1739724;82;21000;-73
2021/06/26 01:34:27;;;;;;;10.32;2.77;;;;;;;20.98;69.32;99321.54;1735540;82;21570;-74
2021/06/26 01:36:54;;;;;;;10.28;2.92;;;;;;;20.92;69.94;99316.03;1750353;82;21513;-74
2021/06/26 01:39:20;;;;;;;9.73;3.22;;;;;;;20.90;70.34;99311.44;1754727;82;21030;-73
2021/06/26 01:41:47;;;;;;;9.48;2.83;;;;;;;20.95;70.51;99310.37;1747839;81;21590;-73
2021/06/26 01:44:14;;;;;;;8.03;2.77;;;;;;;20.99;70.54;99313.48;1725072;82;21052;-74
2021/06/26 01:46:41;;;;;;;11.55;3.20;;;;;;;21.04;70.54;99310.47;1747208;82;21039;-73
2021/06/26 01:49:12;;;;;;;8.73;3.20;;;;;;;21.08;70.68;99311.96;1720657;82;21095;-74
2021/06/26 01:51:39;;;;;;;8.80;3.25;;;;;;;21.04;70.91;99299.41;1737257;81;21054;-73
2021/06/26 01:54:06;;;;;;;9.75;3.15;;;;;;;21.04;71.13;99304.94;1747887;82;21564;-73
2021/06/26 01:56:33;;;;;;;12.30;3.37;;;;;;;21.06;71.25;99305.95;1738096;82;21015;-74
2021/06/26 01:58:59;;;;;;;9.45;3.08;;;;;;;21.08;71.53;99297.52;1749732;82;21019;-71
2021/06/26 02:01:26;;;;;;;10.18;3.42;;;;;;;21.10;71.75;99291.64;1753258;82;21070;-73
2021/06/26 02:03:53;;;;;;;12.28;3.08;;;;;;;21.06;71.89;99277.70;1753273;82;21074;-72
2021/06/26 02:06:19;;;;;;;9.75;3.10;;;;;;;21.08;71.93;99282.91;1749224;82;21016;-73
2021/06/26 02:08:46;;;;;;;11.57;3.05;;;;;;;21.12;71.75;99283.23;1747214;82;21125;-72
2021/06/26 02:11:12;;;;;;;9.73;3.52;;;;;;;21.19;71.54;99281.25;1747730;82;21073;-71
2021/06/26 02:13:39;;;;;;;9.03;3.20;;;;;;;21.17;71.42;99273.89;1747755;82;21070;-70
2021/06/26 02:16:05;;;;;;;12.55;3.05;;;;;;;21.19;71.19;99270.17;1728701;82;21026;-71
2021/06/26 02:18:32;;;;;;;11.73;3.15;;;;;;;21.24;70.88;99269.36;1728213;82;21047;-73
2021/06/26 02:20:58;;;;;;;10.65;3.65;;;;;;;21.28;70.58;99270.84;1743341;82;21006;-72
2021/06/26 02:23:25;;;;;;;14.63;3.10;;;;;;;21.28;70.32;99265.30;1753339;82;21027;-73
2021/06/26 02:25:52;;;;;;;15.55;3.65;;;;;;;21.28;70.17;99267.50;1733967;82;21530;-73
2021/06/26 02:28:18;;;;;;;11.57;3.42;;;;;;;21.33;69.80;99265.84;1747370;82;21047;-71
2021/06/26 02:30:44;;;;;;;9.40;3.52;;;;;;;21.39;69.42;99266.98;1741502;82;21059;-72
2021/06/26 02:33:11;;;;;;;9.68;3.10;;;;;;;21.42;69.11;99274.57;1738296;82;21071;-72
2021/06/26 02:35:37;;;;;;;12.05;3.00;;;;;;;21.46;68.67;99258.86;1736918;82;21070;-72
2021/06/26 02:38:04;;;;;;;12.73;3.20;;;;;;;21.55;68.16;99261.68;1737241;82;21064;-73
2021/06/26 02:40:33;;;;;;;11.03;3.00;;;;;;;21.61;67.74;99259.47;1730143;82;21517;-75
2021/06/26 02:43:00;;;;;;;12.93;3.05;;;;;;;21.61;67.40;99258.86;1748069;82;21039;-72
2021/06/26 02:45:26;;;;;;;10.93;3.10;;;;;;;21.66;67.09;99252.27;1747942;82;21015;-72
2021/06/26 02:47:53;;;;;;;8.38;2.90;;;;;;;21.72;66.67;99254.41;1743606;82;21098;-72
2021/06/26 02:50:19;;;;;;;9.98;3.40;;;;;;;21.74;66.45;99264.56;1740801;82;21045;-73
2021/06/26 02:52:47;;;;;;;7.75;3.10;;;;;;;21.72;66.47;99256.36;1748401;82;21039;-74
2021/06/26 02:55:13;;;;;;;10.10;3.05;;;;;;;21.73;66.36;99262.95;1726999;82;21054;-73
2021/06/26 02:57:40;;;;;;;8.28;2.65;;;;;;;21.83;66.03;99264.38;1703630;82;21079;-71
2021/06/26 03:00:09;;;;;;;8.43;3.15;;;;;;;21.87;65.76;99261.69;1738541;82;21016;-71
2021/06/26 03:02:36;;;;;;;7.40;3.20;;;;;;;21.90;65.62;99268.73;1747916;81;21197;-70
2021/06/26 03:05:04;;;;;;;8.13;2.87;;;;;;;21.95;65.57;99257.97;1748111;82;21555;-70
2021/06/26 03:07:30;;;;;;;10.20;3.10;;;;;;;22.07;65.03;99255.89;1752062;82;21114;-70
2021/06/26 03:09:57;;;;;;;12.20;2.90;;;;;;;22.20;64.50;99242.75;1699056;83;21629;-71
2021/06/26 03:12:23;;;;;;;10.63;2.52;;;;;;;22.30;64.30;99250.50;1710108;83;21047;-70
2021/06/26 03:14:51;;;;;;;12.28;3.40;;;;;;;22.44;63.92;99247.25;1710235;83;21784;-70
2021/06/26 03:17:17;;;;;;;10.08;3.35;;;;;;;22.59;63.36;99247.21;1728530;82;20991;-72
2021/06/26 03:19:44;;;;;;;7.95;2.87;;;;;;;22.77;63.06;99248.43;1749718;82;21502;-70
2021/06/26 03:22:10;;;;;;;13.20;3.17;;;;;;;23.04;62.29;99254.11;1742627;81;21055;-70
2021/06/26 03:24:37;;;;;;;7.28;3.50;;;;;;;23.20;61.64;99246.52;1740036;81;21039;-70
2021/06/26 03:27:05;;;;;;;7.75;2.72;;;;;;;23.34;61.25;99247.37;1738630;81;21066;-71
2021/06/26 03:29:32;;;;;;;14.10;2.90;;;;;;;23.50;60.89;99242.53;1717735;82;21012;-71
2021/06/26 03:31:58;;;;;;;9.65;3.12;;;;;;;23.68;60.79;99245.04;1735026;82;21107;-70
2021/06/26 03:34:25;;;;;;;8.23;3.35;;;;;;;23.87;60.30;99249.73;1736532;82;21058;-70
2021/06/26 03:36:51;;;;;;;7.15;2.72;;;;;;;24.12;59.87;99249.56;1738876;82;21011;-76
2021/06/26 03:39:18;;;;;;;12.28;2.98;;;;;;;24.31;59.08;99239.73;1747816;82;21066;-72
2021/06/26 03:41:44;;;;;;;8.95;2.80;;;;;;;24.49;58.77;99235.82;1719501;82;21663;-69
2021/06/26 03:44:11;;;;;;;10.38;2.92;;;;;;;24.66;58.42;99239.43;1734085;82;21091;-68
2021/06/26 03:46:38;;;;;;;10.15;3.17;;;;;;;24.83;58.27;99236.13;1708403;82;21087;-73
2021/06/26 03:49:05;;;;;;;13.48;3.40;;;;;;;25.03;57.81;99232.58;1718100;83;21110;-67
2021/06/26 03:51:31;;;;;;;11.90;3.95;;;;;;;25.22;56.73;99236.59;1737423;82;21011;-69
2021/06/26 03:53:57;;;;;;;9.03;2.85;;;;;;;25.55;56.55;99235.75;1719264;82;21024;-69
2021/06/26 03:56:24;;;;;;;10.13;3.15;;;;;;;25.55;56.55;99235.75;1741307;82;21517;-68
2021/06/26 03:58:50;;;;;;;12.20;3.30;;;;;;;25.76;55.42;99237.34;1766732;81;21106;-71
2021/06/26 04:01:17;;;;;;;11.35;2.92;;;;;;;25.90;55.25;99236.69;1747776;82;21624;-71
2021/06/26 04:03:46;;;;;;;9.63;3.22;;;;;;;26.12;55.52;99238.44;1743665;82;21094;-71
2021/06/26 04:06:12;;;;;;;11.08;3.10;;;;;;;26.31;54.18;99241.01;1743376;81;21055;-70
2021/06/26 04:08:39;;;;;;;8.23;3.00;;;;;;;26.39;53.80;99233.48;1747349;82;21566;-73
2021/06/26 04:11:06;;;;;;;12.47;2.90;;;;;;;26.36;53.31;99230.86;1747786;82;21095;-72
2021/06/26 04:13:33;;;;;;;9.90;3.00;;;;;;;26.21;53.82;99222.21;1721831;82;21015;-71
2021/06/26 04:15:59;;;;;;;11.03;3.67;;;;;;;26.10;53.99;99216.53;1708607;82;21052;-71
2021/06/26 04:18:26;;;;;;;7.10;3.10;;;;;;;25.96;54.39;99215.03;1739199;82;21668;-70
2021/06/26 04:20:52;;;;;;;13.32;3.22;;;;;;;25.84;54.64;99214.51;1731863;82;21020;-72
2021/06/26 04:23:18;;;;;;;12.80;3.20;;;;;;;25.70;54.96;99211.02;1731556;83;21127;-70
2021/06/26 04:25:48;;;;;;;6.65;3.35;;;;;;;25.54;55.58;99202.13;1731944;83;21083;-71
2021/06/26 04:28:15;;;;;;;11.08;3.58;;;;;;;25.25;56.76;99205.19;1739483;82;21069;-73
2021/06/26 04:30:42;;;;;;;10.30;3.62;;;;;;;25.25;56.76;99205.19;1753980;81;21088;-72
2021/06/26 04:33:09;;;;;;;13.53;4.33;;;;;;;25.05;57.02;99196.79;1760880;81;21088;-73
2021/06/26 04:35:36;;;;;;;11.48;3.58;;;;;;;24.85;57.69;99192.59;1733955;81;21703;-71
2021/06/26 04:38:02;;;;;;;6.83;3.42;;;;;;;24.66;58.11;99184.58;1764729;81;21056;-72
2021/06/26 04:40:29;;;;;;;8.60;3.22;;;;;;;24.60;58.40;99183.31;1753744;81;21022;-69
2021/06/26 04:42:55;;;;;;;11.83;3.85;;;;;;;24.58;58.72;99182.09;1748084;82;21015;-72
2021/06/26 04:45:22;;;;;;;12.20;4.17;;;;;;;24.53;58.78;99185.20;1711565;84;21007;-71
2021/06/26 04:47:49;;;;;;;8.75;3.52;;;;;;;24.51;58.80;99175.86;1746292;82;21075;-68
2021/06/26 04:50:16;;;;;;;9.93;3.55;;;;;;;24.61;59.39;99178.55;1697798;84;21020;-70
2021/06/26 04:52:44;;;;;;;7.45;3.58;;;;;;;24.82;58.90;99181.59;1696831;84;21087;-69
2021/06/26 04:55:11;;;;;;;9.68;3.58;;;;;;;25.12;58.66;99182.36;1697352;84;20972;-70
2021/06/26 04:57:37;;;;;;;11.08;3.60;;;;;;;25.42;57.87;99180.88;1696878;84;21079;-71
2021/06/26 05:00:06;;;;;;;11.57;3.85;;;;;;;25.74;56.70;99188.96;1699106;84;21071;-69
2021/06/26 05:02:32;;;;;;;27.58;16.70;;;;;;;26.01;56.74;99189.55;1697076;84;21074;-71
2021/06/26 05:04:59;;;;;;;20.08;8.58;;;;;;;26.26;55.81;99184.16;1669012;86;21047;-69
2021/06/26 05:07:25;;;;;;;16.80;5.42;;;;;;;26.52;54.57;99186.72;1687428;84;21142;-69
2021/06/26 05:09:52;;;;;;;14.33;4.83;;;;;;;26.73;53.84;99188.20;1686454;84;21542;-71
2021/06/26 05:12:18;;;;;;;13.45;7.70;;;;;;;26.90;53.36;99200.66;1688747;85;21062;-71
2021/06/26 05:14:46;;;;;;;13.58;4.72;;;;;;;27.07;53.00;99187.34;1738291;82;21070;-71
2021/06/26 05:17:12;;;;;;;9.00;3.72;;;;;;;27.23;52.14;99181.41;1740374;82;21510;-71
2021/06/26 05:19:41;;;;;;;12.15;4.28;;;;;;;27.34;52.00;99183.63;1746001;82;21082;-72
2021/06/26 05:22:08;;;;;;;14.50;4.65;;;;;;;27.49;52.54;99183.86;1730865;82;21070;-73
2021/06/26 05:24:34;;;;;;;11.08;5.22;;;;;;;27.67;52.43;99184.67;1710660;82;21042;-71
2021/06/26 05:27:00;;;;;;;9.28;4.10;;;;;;;27.90;51.31;99187.67;1718921;82;21098;-72
2021/06/26 05:29:27;;;;;;;16.37;4.78;;;;;;;28.02;50.64;99182.45;1715837;82;21549;-70
2021/06/26 05:31:53;;;;;;;10.80;3.98;;;;;;;28.11;50.00;99194.08;1751920;82;21018;-69
2021/06/26 05:34:20;;;;;;;9.43;4.08;;;;;;;28.22;50.09;99189.06;1755561;82;21078;-70
2021/06/26 05:36:46;;;;;;;14.50;4.22;;;;;;;28.33;49.67;99184.23;1726275;82;21031;-70
2021/06/26 05:39:13;;;;;;;12.60;3.55;;;;;;;28.42;49.70;99191.00;1742969;81;21031;-68
2021/06/26 05:41:39;;;;;;;16.20;3.85;;;;;;;28.48;50.36;99183.81;1754484;81;21046;-68
2021/06/26 05:46:09;;;;;;;;;;;;;;;28.85;49.09;99181.88;1813463;79;22949;-70
2021/06/26 05:48:35;;;;;;;10.90;3.62;;;;;;;28.90;49.19;99188.47;1761647;80;20131;-71
2021/06/26 05:51:02;;;;;;;12.82;3.80;;;;;;;29.04;48.71;99191.80;1715188;83;22202;-71
2021/06/26 05:53:28;;;;;;;13.38;3.87;;;;;;;29.24;47.91;99185.87;1709290;82;21058;-69
2021/06/26 05:55:58;;;;;;;11.53;4.17;;;;;;;29.44;47.62;99191.17;1721665;82;21007;-70
2021/06/26 05:58:33;;;;;;;13.95;4.58;;;;;;;29.62;47.81;99194.64;1702863;83;21039;-70
2021/06/26 06:01:00;;;;;;;15.88;4.50;;;;;;;29.81;46.75;99191.09;1704980;83;21087;-70
2021/06/26 06:03:26;;;;;;;10.13;4.62;;;;;;;29.94;47.27;99186.59;1716592;82;21042;-69
2021/06/26 06:05:52;;;;;;;11.08;4.00;;;;;;;30.10;46.23;99178.44;1746566;82;21089;-71
2021/06/26 06:08:19;;;;;;;11.55;4.22;;;;;;;30.13;45.70;99187.43;1746806;81;21082;-69
2021/06/26 06:10:47;;;;;;;14.70;4.20;;;;;;;30.07;46.04;99177.27;1732010;82;21037;-68
2021/06/26 06:13:14;;;;;;;13.53;4.33;;;;;;;30.11;45.54;99183.62;1731373;83;21114;-68
2021/06/26 06:15:42;;;;;;;11.20;3.80;;;;;;;30.18;45.42;99174.96;1713216;83;21007;-71
2021/06/26 06:18:09;;;;;;;10.55;4.25;;;;;;;30.26;45.59;99176.46;1729516;82;21035;-69
2021/06/26 06:20:37;;;;;;;9.80;3.92;;;;;;;30.36;45.02;99167.92;1731026;82;21055;-69
2021/06/26 06:23:04;;;;;;;8.23;3.65;;;;;;;30.49;44.67;99182.27;1721001;82;21654;-68
2021/06/26 06:25:32;;;;;;;9.13;3.95;;;;;;;30.58;44.35;99185.36;1730650;82;21046;-67
2021/06/26 06:27:59;;;;;;;10.75;4.92;;;;;;;30.62;44.48;99180.50;1704204;82;21574;-68
2021/06/26 06:30:26;;;;;;;12.23;3.98;;;;;;;30.69;45.23;99181.02;1713998;82;21014;-66
2021/06/26 06:32:53;;;;;;;11.90;4.20;;;;;;;30.74;45.06;99179.16;1725420;83;21105;-66
2021/06/26 06:35:19;;;;;;;10.20;4.00;;;;;;;30.77;44.81;99186.14;1728819;83;21070;-68
2021/06/26 06:37:46;;;;;;;8.70;3.98;;;;;;;30.87;44.79;99185.20;1731420;83;21075;-67
2021/06/26 06:40:13;;;;;;;8.03;3.85;;;;;;;30.98;44.62;99190.72;1731780;82;21109;-67
2021/06/26 06:42:40;;;;;;;11.25;3.87;;;;;;;30.92;43.79;99191.78;1696914;83;21054;-67
2021/06/26 06:45:08;;;;;;;8.25;3.98;;;;;;;31.00;44.52;99189.07;1725708;83;21549;-66
2021/06/26 06:47:34;;;;;;;9.43;3.47;;;;;;;31.17;43.76;99186.45;1734120;81;21105;-67
2021/06/26 06:50:01;;;;;;;8.05;3.95;;;;;;;31.41;43.56;99188.91;1729358;82;21074;-68
2021/06/26 06:52:27;;;;;;;10.63;3.95;;;;;;;31.60;43.00;99191.67;1726558;82;21773;-67
2021/06/26 06:54:54;;;;;;;11.43;3.58;;;;;;;31.76;41.88;99191.80;1694095;82;21066;-66
2021/06/26 06:57:23;;;;;;;9.63;3.85;;;;;;;32.00;41.53;99194.80;1729760;82;21169;-68
2021/06/26 06:59:50;;;;;;;10.93;3.77;;;;;;;32.07;40.87;99191.09;1735468;82;21006;-66
2021/06/26 07:02:17;;;;;;;8.30;3.35;;;;;;;32.09;41.22;99192.08;1734296;82;21023;-67
2021/06/26 07:04:43;;;;;;;10.38;3.80;;;;;;;32.41;41.14;99189.47;1731328;82;21062;-67
2021/06/26 07:07:09;;;;;;;8.83;3.60;;;;;;;32.57;40.24;99186.72;1730978;82;21043;-68
2021/06/26 07:09:37;;;;;;;13.75;4.00;;;;;;;32.62;40.39;99185.46;1730644;83;21074;-67
2021/06/26 07:12:05;;;;;;;11.22;3.92;;;;;;;32.68;39.75;99190.16;1706042;81;21031;-66
2021/06/26 07:14:31;;;;;;;9.18;3.42;;;;;;;32.75;39.82;99184.38;1714635;83;21598;-65
2021/06/26 07:16:58;;;;;;;7.25;3.58;;;;;;;32.95;39.71;99173.87;1723532;82;21058;-66
2021/06/26 07:19:25;;;;;;;9.03;3.67;;;;;;;33.18;39.20;99178.64;1730885;83;21651;-68
2021/06/26 07:21:52;;;;;;;10.00;4.28;;;;;;;33.37;39.33;99169.31;1708252;83;21007;-67
2021/06/26 07:24:18;;;;;;;11.10;4.03;;;;;;;33.52;37.73;99173.39;1700906;83;21150;-67
2021/06/26 07:26:46;;;;;;;10.25;4.05;;;;;;;33.69;37.69;99172.84;1700391;84;21055;-68
2021/06/26 07:29:12;;;;;;;9.95;3.92;;;;;;;33.82;38.27;99175.12;1706909;83;21079;-67
2021/06/26 07:31:39;;;;;;;7.37;3.15;;;;;;;33.77;38.01;99170.60;1688770;84;21085;-67
2021/06/26 07:34:05;;;;;;;9.43;3.75;;;;;;;33.72;37.49;99162.69;1696100;84;21026;-65
2021/06/26 07:36:33;;;;;;;11.68;3.83;;;;;;;33.66;37.15;99165.22;1666473;86;21651;-66
2021/06/26 07:39:00;;;;;;;9.45;3.30;;;;;;;33.62;36.98;99164.55;1664659;86;21122;-66
2021/06/26 07:41:26;;;;;;;9.05;3.27;;;;;;;33.75;37.50;99171.06;1670185;85;21544;-67
2021/06/26 07:43:53;;;;;;;10.93;3.67;;;;;;;34.00;38.18;99169.02;1687902;84;21133;-67
2021/06/26 07:46:20;;;;;;;8.40;3.27;;;;;;;34.13;35.84;99169.09;1696637;84;21126;-69
2021/06/26 07:48:46;;;;;;;8.40;3.45;;;;;;;34.01;35.62;99173.43;1682809;84;21071;-66
2021/06/26 07:51:13;;;;;;;9.40;3.08;;;;;;;33.94;35.78;99171.56;1681995;85;21572;-69
2021/06/26 07:53:40;;;;;;;9.28;3.35;;;;;;;34.07;35.95;99174.48;1680552;84;21046;-66
2021/06/26 07:56:06;;;;;;;12.90;3.47;;;;;;;34.04;36.61;99176.78;1716685;83;20998;-67
2021/06/26 07:58:32;;;;;;;11.63;3.33;;;;;;;34.02;36.46;99173.59;1716436;82;21099;-67
2021/06/26 08:00:59;;;;;;;9.05;3.47;;;;;;;34.03;36.44;99169.53;1716267;83;21592;-70
2021/06/26 08:03:25;;;;;;;6.97;3.30;;;;;;;34.11;36.91;99170.14;1713132;82;21508;-70
2021/06/26 08:05:53;;;;;;;9.60;3.22;;;;;;;34.11;36.16;99170.14;1717972;83;21056;-68
2021/06/26 08:08:19;;;;;;;9.15;3.72;;;;;;;34.00;36.41;99169.02;1718307;82;21034;-69
2021/06/26 08:10:46;;;;;;;6.50;3.22;;;;;;;33.90;36.39;99163.83;1715983;83;21037;-70
2021/06/26 08:13:14;;;;;;;8.90;3.85;;;;;;;33.88;37.20;99164.88;1716137;82;21879;-69
2021/06/26 08:15:42;;;;;;;8.68;3.75;;;;;;;34.00;37.23;99171.22;1716143;83;21031;-69
2021/06/26 08:18:10;;;;;;;11.65;3.20;;;;;;;34.20;36.36;99164.06;1715074;82;21047;-70
2021/06/26 08:20:38;;;;;;;10.03;3.10;;;;;;;34.32;36.62;99170.39;1688187;83;21019;-70
2021/06/26 08:23:05;;;;;;;10.32;3.67;;;;;;;34.42;35.11;99162.23;1716118;82;21130;-71
2021/06/26 08:25:31;;;;;;;7.45;3.65;;;;;;;34.44;36.38;99163.19;1717936;82;21038;-71
2021/06/26 08:27:57;;;;;;;8.58;3.37;;;;;;;34.26;35.15;99148.79;1729690;81;21538;-70
2021/06/26 08:30:24;;;;;;;9.55;3.45;;;;;;;34.09;35.78;99147.19;1701089;84;21053;-70
2021/06/26 08:32:51;;;;;;;15.60;3.77;;;;;;;33.99;36.84;99151.27;1710519;82;21019;-69
2021/06/26 08:35:18;;;;;;;12.98;4.05;;;;;;;34.19;37.34;99151.81;1716258;82;21050;-67
2021/06/26 08:37:45;;;;;;;15.53;4.33;;;;;;;34.43;37.50;99150.33;1716413;82;21047;-68
2021/06/26 08:40:13;;;;;;;11.33;4.03;;;;;;;34.52;37.51;99147.63;1708162;83;21011;-69
2021/06/26 08:42:40;;;;;;;10.93;3.98;;;;;;;34.51;36.77;99148.09;1718331;82;21134;-69
2021/06/26 08:45:09;;;;;;;10.05;3.75;;;;;;;34.49;36.84;99145.70;1719609;82;21028;-68
2021/06/26 08:47:36;;;;;;;13.50;3.70;;;;;;;34.61;35.51;99140.72;1718195;83;21063;-67
2021/06/26 08:50:05;;;;;;;8.73;3.70;;;;;;;34.49;36.19;99141.46;1696963;82;21537;-67
2021/06/26 08:52:33;;;;;;;8.40;3.72;;;;;;;34.33;36.36;99138.70;1685753;83;21097;-72
2021/06/26 08:54:59;;;;;;;10.82;3.45;;;;;;;34.24;37.16;99138.54;1709536;83;21056;-70
2021/06/26 08:57:29;;;;;;;10.23;3.52;;;;;;;34.11;36.67;99137.67;1694637;83;21687;-69
2021/06/26 08:59:58;;;;;;;9.70;3.72;;;;;;;34.03;37.17;99133.44;1655805;87;21196;-68
2021/06/26 09:02:25;;;;;;;8.80;3.70;;;;;;;33.96;37.61;99133.02;1710998;83;21481;-70
2021/06/26 09:04:52;;;;;;;7.15;3.35;;;;;;;33.90;38.22;99124.30;1710822;83;21032;-70
2021/06/26 09:07:30;;;;;;;8.80;3.35;;;;;;;33.85;37.67;99129.67;1712916;83;20992;-69
2021/06/26 09:09:58;;;;;;;12.30;3.60;;;;;;;33.84;39.01;99125.25;1714291;82;20959;-70
2021/06/26 09:12:26;;;;;;;6.65;3.62;;;;;;;33.85;38.03;99116.97;1717965;83;21075;-69
2021/06/26 09:14:53;;;;;;;9.25;3.92;;;;;;;33.92;36.61;99118.20;1717589;82;21550;-68
2021/06/26 09:17:37;;;;;;;12.68;3.80;;;;;;;34.02;37.91;99115.70;1721592;82;21064;-69
2021/06/26 09:20:09;;;;;;;10.30;3.12;;;;;;;34.25;37.30;99109.06;1719199;82;21066;-69
2021/06/26 09:22:43;;;;;;;10.58;3.85;;;;;;;34.49;36.51;99116.83;1720035;82;21545;-68
2021/06/26 09:25:23;;;;;;;;;;;;;;;34.62;36.82;99116.05;1735597;83;21106;-69
2021/06/26 09:27:50;;;;;;;9.55;3.47;;;;;;;34.59;36.93;99117.75;1725205;81;20457;-69
2021/06/26 09:30:20;;;;;;;9.10;3.22;;;;;;;34.28;36.63;99108.96;1701951;83;21088;-68
2021/06/26 09:32:47;;;;;;;12.15;4.00;;;;;;;34.26;37.05;99111.42;1730629;81;21604;-70
2021/06/26 09:35:16;;;;;;;11.38;3.62;;;;;;;34.27;36.99;99105.95;1723204;83;21004;-70
2021/06/26 09:37:43;;;;;;;7.08;3.08;;;;;;;34.28;36.23;99099.08;1718406;83;21116;-70
2021/06/26 09:40:12;;;;;;;7.67;3.22;;;;;;;34.49;37.07;99110.38;1718270;83;21083;-66
2021/06/26 09:42:40;;;;;;;6.33;3.37;;;;;;;34.49;37.33;99107.55;1718001;83;21079;-69
2021/06/26 09:45:10;;;;;;;11.05;3.90;;;;;;;34.65;37.37;99099.66;1718188;82;20988;-70
2021/06/26 09:47:42;;;;;;;9.48;3.92;;;;;;;34.85;37.03;99101.05;1731521;82;21497;-68
2021/06/26 09:50:19;;;;;;;7.70;3.60;;;;;;;34.99;36.37;99095.56;1725070;83;21478;-69
2021/06/26 09:52:55;;;;;;;11.48;3.95;;;;;;;35.18;37.89;99104.47;1729802;82;21043;-70
2021/06/26 09:55:39;;;;;;;9.03;4.65;;;;;;;35.37;35.85;99099.82;1743327;82;21014;-69
2021/06/26 09:58:12;;;;;;;9.75;4.10;;;;;;;35.23;37.24;99105.32;1734699;82;21003;-67
2021/06/26 10:00:42;;;;;;;9.20;4.30;;;;;;;34.88;38.58;99107.20;1738245;82;21062;-70
2021/06/26 10:03:11;;;;;;;11.33;4.58;;;;;;;34.36;39.76;99112.38;1730927;82;21086;-69
2021/06/26 10:05:38;;;;;;;9.25;4.10;;;;;;;33.83;40.66;99094.84;1700999;83;21034;-69
2021/06/26 10:08:06;;;;;;;11.48;4.55;;;;;;;33.46;41.98;99095.37;1694975;84;21570;-70
2021/06/26 10:10:33;;;;;;;10.03;4.00;;;;;;;33.08;42.75;99092.23;1666284;86;21085;-70
2021/06/26 10:12:59;;;;;;;8.95;4.55;;;;;;;32.81;43.38;99100.89;1647902;86;21686;-69
2021/06/26 10:15:31;;;;;;;9.30;4.20;;;;;;;32.55;44.09;99094.81;1676961;85;21087;-69
2021/06/26 10:17:57;;;;;;;11.25;3.98;;;;;;;32.22;44.37;99102.31;1687113;83;21457;-69
2021/06/26 10:20:26;;;;;;;12.47;5.12;;;;;;;31.84;44.78;99091.96;1706562;83;21035;-70
2021/06/26 10:23:01;;;;;;;12.20;4.70;;;;;;;31.58;45.48;99085.79;1687122;84;21070;-69
2021/06/26 12:31:09;;;;;;;8.45;2.92;;;;;;;20.41;77.58;99383.14;1759096;79;22606;-68
2021/06/26 12:33:36;;;;;;;6.70;2.90;;;;;;;20.63;75.64;99379.92;1723076;83;21039;-68
2021/06/26 12:36:20;;;;;;;5.17;3.22;;;;;;;20.66;74.13;99328.06;1730634;78;64450;-67
2021/06/26 12:38:48;;;;;;;5.25;2.98;;;;;;;20.60;73.63;99290.17;1694390;83;21051;-69
2021/06/26 12:41:26;;;;;;;6.15;2.95;;;;;;;20.46;73.67;99262.67;1689245;83;21131;-67
2021/06/26 12:43:54;;;;;;;6.83;3.77;;;;;;;20.41;73.47;99276.71;1690338;85;21499;-67
2021/06/26 12:46:21;;;;;;;10.00;3.77;;;;;;;20.41;73.59;99291.92;1688457;83;21199;-68
2021/06/26 12:48:55;;;;;;;6.15;3.30;;;;;;;20.29;74.25;99283.89;1690347;85;21515;-69
2021/06/26 12:51:44;;;;;;;7.45;3.52;;;;;;;20.20;75.09;99284.55;1690575;83;21064;-68
2021/06/26 12:54:10;;;;;;;6.22;3.10;;;;;;;20.12;75.79;99284.08;1689499;85;21068;-69
2021/06/26 12:56:39;;;;;;;7.35;3.25;;;;;;;20.09;76.14;99296.39;1673110;85;21087;-69
2021/06/26 12:59:12;;;;;;;7.90;2.77;;;;;;;20.10;76.37;99300.78;1657625;86;21067;-68
2021/06/26 13:01:46;;;;;;;7.15;2.70;;;;;;;20.13;75.82;99309.19;1657325;86;21131;-70
2021/06/26 13:04:36;;;;;;;7.72;3.02;;;;;;;20.21;74.75;99316.56;1638774;85;20987;-69
2021/06/26 13:07:03;;;;;;;8.63;2.85;;;;;;;20.31;74.54;99311.98;1656819;85;21134;-68
2021/06/26 13:09:35;;;;;;;9.65;2.85;;;;;;;20.36;74.12;99306.80;1673965;85;21449;-70
2021/06/26 13:12:23;;;;;;;7.08;2.80;;;;;;;20.43;73.23;99307.03;1685206;84;21022;-68
2021/06/26 13:14:57;;;;;;;12.28;3.17;;;;;;;20.54;73.83;99304.59;1670680;85;20983;-70
2021/06/26 13:17:23;;;;;;;6.22;2.58;;;;;;;20.52;73.85;99294.44;1664614;84;21046;-69
2021/06/26 13:19:52;;;;;;;7.97;2.80;;;;;;;20.49;74.21;99298.72;1658533;85;21063;-69
2021/06/26 13:22:20;;;;;;;7.40;2.75;;;;;;;20.51;74.16;99309.44;1685093;84;21564;-69
2021/06/26 13:24:48;;;;;;;7.65;3.10;;;;;;;20.48;74.80;99305.39;1685221;84;21013;-70
2021/06/26 13:27:16;;;;;;;12.95;3.85;;;;;;;20.50;75.25;99298.95;1677417;84;21703;-69
2021/06/26 13:29:42;;;;;;;9.43;3.77;;;;;;;20.53;75.80;99287.77;1660948;85;21015;-69
2021/06/26 13:32:09;;;;;;;5.95;2.60;;;;;;;20.50;75.97;99267.16;1656590;85;21134;-69
2021/06/26 13:34:37;;;;;;;3.72;2.50;;;;;;;20.54;74.12;99251.48;1656188;86;21035;-69
2021/06/26 13:37:04;;;;;;;5.33;2.30;;;;;;;20.62;74.51;99233.93;1657224;86;21083;-69
2021/06/26 13:39:31;;;;;;;7.17;2.65;;;;;;;20.48;74.49;99231.31;1657714;86;21011;-69